createdAt,value
2019-04-04T00:00:28.062Z,72.70
2019-04-04T00:02:57.101Z,72.60
2019-04-04T00:05:28.318Z,72.40
2019-04-04T00:08:00.149Z,72.10
2019-04-04T00:10:30.588Z,72.10
2019-04-04T00:13:00.836Z,71.20
2019-04-04T00:15:30.285Z,70.70
2019-04-04T00:17:58.914Z,70.20
2019-04-04T00:20:27.401Z,69.80
2019-04-04T00:22:55.762Z,69.50
2019-04-04T00:25:23.833Z,70.10
2019-04-04T00:27:52.462Z,70.00
2019-04-04T00:30:22.379Z,69.70
2019-04-04T00:32:52.884Z,71.00
2019-04-04T00:35:22.512Z,71.40
2019-04-04T00:37:52.222Z,71.50
2019-04-04T00:40:22.313Z,72.10
2019-04-04T00:42:51.963Z,72.30
2019-04-04T00:45:21.373Z,72.70
2019-04-04T00:47:50.969Z,72.20
2019-04-04T00:50:20.272Z,72.10
2019-04-04T00:52:49.984Z,71.80
2019-04-04T00:55:19.611Z,71.10
2019-04-04T00:57:50.345Z,70.40
2019-04-04T01:00:19.688Z,71.30
2019-04-04T01:02:49.605Z,71.70
2019-04-04T01:05:19.025Z,71.70
2019-04-04T01:07:48.431Z,71.30
2019-04-04T01:10:19.016Z,72.10
2019-04-04T01:12:50.186Z,71.50
2019-04-04T01:15:20.115Z,71.20
2019-04-04T01:17:49.602Z,72.00
2019-04-04T01:20:20.422Z,72.30
2019-04-04T01:22:50.644Z,72.30
2019-04-04T01:25:20.083Z,72.30
2019-04-04T01:27:49.612Z,71.40
2019-04-04T01:30:19.809Z,71.20
2019-04-04T01:32:49.314Z,70.50
2019-04-04T01:35:22.399Z,70.60
2019-04-04T01:37:50.822Z,70.80
2019-04-04T01:40:20.261Z,70.70
2019-04-04T01:42:49.894Z,70.60
2019-04-04T01:45:19.727Z,71.00
2019-04-04T01:47:51.148Z,71.90
2019-04-04T01:50:22.519Z,72.20
2019-04-04T01:52:52.408Z,72.60
2019-04-04T01:55:21.822Z,72.20
2019-04-04T01:57:51.554Z,71.20
2019-04-04T02:00:20.810Z,70.60
2019-04-04T02:02:51.908Z,70.90
2019-04-04T02:05:22.029Z,71.40
2019-04-04T02:07:51.984Z,71.90
2019-04-04T02:10:21.111Z,72.30
2019-04-04T02:12:51.290Z,72.00
2019-04-04T02:15:22.265Z,73.10
2019-04-04T02:17:52.906Z,74.10
2019-04-04T02:20:24.993Z,75.00
2019-04-04T02:22:54.209Z,75.30
2019-04-04T02:25:23.556Z,75.30
2019-04-04T02:27:53.702Z,75.60
2019-04-04T02:30:23.148Z,75.70
2019-04-04T02:32:53.454Z,75.70
2019-04-04T02:35:23.392Z,76.40
2019-04-04T02:37:55.383Z,76.30
2019-04-04T02:40:25.013Z,76.60
2019-04-04T02:42:55.562Z,75.00
2019-04-04T02:45:25.153Z,74.40
2019-04-04T02:47:54.318Z,75.20
2019-04-04T02:50:23.778Z,75.20
2019-04-04T02:52:55.010Z,75.20
2019-04-04T02:55:29.952Z,75.40
2019-04-04T02:57:57.529Z,75.30
2019-04-04T03:00:27.810Z,75.20
2019-04-04T03:02:57.525Z,74.60
2019-04-04T03:05:26.690Z,74.00
2019-04-04T03:07:56.333Z,74.10
2019-04-04T03:10:25.821Z,74.30
2019-04-04T03:12:58.659Z,73.80
2019-04-04T03:15:26.949Z,74.10
2019-04-04T03:17:56.407Z,73.40
2019-04-04T03:20:25.724Z,73.30
2019-04-04T03:22:54.852Z,74.00
2019-04-04T03:25:25.357Z,72.70
2019-04-04T03:27:55.485Z,73.30
2019-04-04T03:30:26.575Z,73.20
2019-04-04T03:32:55.894Z,72.30
2019-04-04T03:35:28.262Z,72.20
2019-04-04T03:37:56.348Z,72.20
2019-04-04T03:40:26.066Z,72.00
2019-04-04T03:42:55.356Z,72.40
2019-04-04T03:45:27.260Z,72.80
2019-04-04T03:47:55.791Z,72.90
2019-04-04T03:50:29.066Z,73.50
2019-04-04T03:52:56.230Z,73.30
2019-04-04T03:55:27.389Z,73.80
2019-04-04T03:57:58.457Z,74.00
2019-04-04T04:00:29.232Z,73.60
2019-04-04T04:02:58.701Z,73.70
2019-04-04T04:05:33.734Z,73.70
2019-04-04T04:08:02.291Z,73.70
2019-04-04T04:10:33.346Z,73.70
2019-04-04T04:13:03.024Z,73.90
2019-04-04T04:15:32.149Z,74.30
2019-04-04T04:18:01.472Z,74.50
2019-04-04T04:20:30.978Z,75.10
2019-04-04T04:23:00.606Z,75.40
2019-04-04T04:25:35.116Z,75.60
2019-04-04T04:28:05.303Z,75.90
2019-04-04T04:30:39.425Z,75.30
2019-04-04T04:33:06.227Z,75.20
2019-04-04T04:35:40.595Z,75.20
2019-04-04T04:38:07.755Z,75.50
2019-04-04T04:40:37.152Z,75.80
2019-04-04T04:43:08.366Z,75.80
2019-04-04T04:45:37.814Z,75.60
2019-04-04T04:48:08.420Z,75.90
2019-04-04T04:50:40.081Z,75.80
2019-04-04T04:53:10.818Z,76.30
2019-04-04T04:55:40.473Z,76.20
2019-04-04T04:58:10.310Z,76.30
2019-04-04T05:00:40.722Z,76.30
2019-04-04T05:03:09.881Z,76.70
2019-04-04T05:05:39.790Z,77.20
2019-04-04T05:08:10.588Z,77.20
2019-04-04T05:10:40.172Z,77.10
2019-04-04T05:13:09.700Z,77.10
2019-04-04T05:15:39.150Z,77.10
2019-04-04T05:18:11.765Z,76.00
2019-04-04T05:20:40.308Z,76.30
2019-04-04T05:23:11.105Z,77.10
2019-04-04T05:25:53.493Z,77.40
2019-04-04T05:28:12.043Z,77.90
2019-04-04T05:30:45.111Z,78.00
2019-04-04T05:33:15.786Z,77.90
2019-04-04T05:35:45.647Z,78.10
2019-04-04T05:38:15.106Z,77.20
2019-04-04T05:40:45.918Z,77.30
2019-04-04T05:43:18.530Z,77.10
2019-04-04T05:45:47.030Z,77.40
2019-04-04T05:48:15.916Z,77.80
2019-04-04T05:50:45.426Z,77.80
2019-04-04T05:53:15.595Z,78.20
2019-04-04T05:55:43.597Z,78.30
2019-04-04T05:58:12.774Z,78.00
2019-04-04T06:00:43.112Z,78.20
2019-04-04T06:03:15.173Z,78.30
2019-04-04T06:05:45.563Z,78.10
2019-04-04T06:08:15.282Z,78.60
2019-04-04T06:10:44.730Z,78.60
2019-04-04T06:13:14.125Z,78.90
2019-04-04T06:15:43.904Z,79.80
2019-04-04T06:18:16.756Z,78.80
2019-04-04T06:20:48.381Z,78.80
2019-04-04T06:23:20.441Z,78.20
2019-04-04T06:25:48.851Z,78.00
2019-04-04T06:28:21.015Z,77.80
2019-04-04T06:30:53.310Z,77.20
2019-04-04T06:33:21.426Z,76.90
2019-04-04T06:35:51.471Z,76.30
2019-04-04T06:38:23.351Z,76.80
2019-04-04T06:40:52.422Z,76.80
2019-04-04T06:43:21.575Z,76.20
2019-04-04T06:45:52.529Z,76.20
2019-04-04T06:48:24.035Z,76.30
2019-04-04T06:50:53.860Z,75.60
2019-04-04T06:53:24.579Z,75.80
2019-04-04T06:55:54.248Z,76.00
2019-04-04T06:58:27.003Z,76.20
2019-04-04T07:00:56.687Z,75.10
2019-04-04T07:03:27.926Z,74.90
2019-04-04T07:05:57.824Z,75.00
2019-04-04T07:08:28.595Z,74.60
2019-04-04T07:11:02.317Z,74.00
2019-04-04T07:13:41.406Z,74.40
2019-04-04T07:16:06.930Z,74.10
2019-04-04T07:18:31.932Z,73.50
2019-04-04T07:21:04.612Z,73.00
2019-04-04T07:23:33.760Z,72.40
2019-04-04T07:26:03.335Z,72.30
2019-04-04T07:28:32.770Z,71.60
2019-04-04T07:31:02.619Z,71.30
2019-04-04T07:33:31.357Z,69.90
2019-04-04T07:36:01.243Z,68.60
2019-04-04T07:38:31.009Z,68.00
2019-04-04T07:41:00.414Z,64.90
2019-04-04T07:43:32.464Z,64.20
2019-04-04T07:46:15.730Z,63.80
2019-04-04T07:48:34.134Z,63.30
2019-04-04T07:51:12.083Z,62.30
2019-04-04T07:53:41.886Z,62.50
2019-04-04T07:56:14.244Z,62.90
2019-04-04T07:58:44.634Z,62.50
2019-04-04T08:01:16.139Z,61.00
2019-04-04T08:03:45.924Z,59.80
2019-04-04T08:06:17.598Z,59.60
2019-04-04T08:08:45.743Z,59.30
2019-04-04T08:11:13.805Z,60.00
2019-04-04T08:13:42.181Z,59.80
2019-04-04T08:16:11.796Z,59.70
2019-04-04T08:18:39.812Z,59.00
2019-04-04T08:21:08.548Z,58.00
2019-04-04T08:23:39.742Z,56.90
2019-04-04T08:26:10.180Z,57.90
2019-04-04T08:28:38.410Z,57.60
2019-04-04T08:31:09.756Z,56.80
2019-04-04T08:33:38.795Z,55.40
2019-04-04T08:36:07.184Z,54.10
2019-04-04T08:38:35.840Z,53.60
2019-04-04T08:41:04.295Z,51.60
2019-04-04T08:43:32.621Z,50.60
2019-04-04T08:46:01.319Z,51.00
2019-04-04T08:48:29.430Z,49.30
2019-04-04T08:50:57.534Z,47.80
2019-04-04T08:53:25.640Z,46.70
2019-04-04T08:55:54.281Z,47.10
2019-04-04T08:58:22.689Z,46.70
2019-04-04T09:00:51.362Z,47.30
2019-04-04T09:03:19.470Z,48.60
2019-04-04T09:05:47.896Z,48.90
2019-04-04T09:08:16.054Z,49.30
2019-04-04T09:10:44.775Z,48.00
2019-04-04T09:13:12.947Z,46.80
2019-04-04T09:15:41.386Z,48.30
2019-04-04T09:18:11.302Z,46.80
2019-04-04T09:20:39.653Z,45.70
2019-04-04T09:23:08.277Z,48.20
2019-04-04T09:25:36.799Z,48.80
2019-04-04T09:28:05.717Z,47.00
2019-04-04T09:30:35.102Z,46.40
2019-04-04T09:33:03.279Z,44.80
2019-04-04T09:35:35.150Z,44.80
2019-04-04T09:38:03.326Z,46.30
2019-04-04T09:40:32.310Z,45.20
2019-04-04T09:43:00.945Z,44.40
2019-04-04T09:45:29.383Z,43.40
2019-04-04T09:47:58.545Z,42.20
2019-04-04T09:50:26.929Z,40.30
2019-04-04T09:52:56.474Z,39.10
2019-04-04T09:55:24.815Z,37.60
2019-04-04T09:57:53.019Z,38.70
2019-04-04T10:00:22.348Z,39.30
2019-04-04T10:02:50.834Z,40.80
2019-04-04T10:05:18.949Z,42.40
2019-04-04T10:07:47.234Z,45.80
2019-04-04T10:10:15.790Z,45.10
2019-04-04T10:12:44.549Z,45.20
2019-04-04T10:15:13.109Z,44.30
2019-04-04T10:17:43.090Z,43.30
2019-04-04T10:20:11.959Z,44.10
2019-04-04T10:22:41.078Z,45.60
2019-04-04T10:25:11.037Z,47.10
2019-04-04T10:27:39.430Z,47.30
2019-04-04T10:30:08.001Z,47.30
2019-04-04T10:32:36.119Z,46.30
2019-04-04T10:35:04.724Z,44.80
2019-04-04T10:37:33.498Z,44.20
2019-04-04T10:40:02.007Z,43.80
2019-04-04T10:42:30.973Z,44.40
2019-04-04T10:44:59.099Z,45.10
2019-04-04T10:47:27.211Z,45.30
2019-04-04T10:49:58.310Z,46.30
2019-04-04T10:52:26.662Z,48.40
2019-04-04T10:54:55.868Z,49.60
2019-04-04T10:57:25.342Z,50.90
2019-04-04T10:59:55.442Z,50.20
2019-04-04T11:02:24.844Z,50.60
2019-04-04T11:04:53.315Z,50.80
2019-04-04T11:07:22.315Z,50.50
2019-04-04T11:09:50.419Z,51.40
2019-04-04T11:12:19.352Z,51.80
2019-04-04T11:14:47.776Z,52.70
2019-04-04T11:17:16.598Z,53.70
2019-04-04T11:19:44.817Z,53.50
2019-04-04T11:22:13.216Z,53.60
2019-04-04T11:24:41.874Z,53.50
2019-04-04T11:27:11.341Z,53.90
2019-04-04T11:29:40.074Z,53.50
2019-04-04T11:32:08.262Z,52.50
2019-04-04T11:34:36.370Z,51.70
2019-04-04T11:37:04.427Z,51.70
2019-04-04T11:39:33.056Z,52.70
2019-04-04T11:42:03.760Z,54.00
2019-04-04T11:44:32.232Z,54.70
2019-04-04T11:47:00.430Z,55.00
2019-04-04T11:49:28.811Z,55.10
2019-04-04T11:51:57.232Z,55.20
2019-04-04T11:54:25.791Z,56.40
2019-04-04T11:56:53.852Z,55.60
2019-04-04T11:59:21.928Z,56.10
2019-04-04T12:01:51.933Z,56.90
2019-04-04T12:04:22.590Z,56.50
2019-04-04T12:06:51.840Z,56.20
2019-04-04T12:09:21.394Z,56.00
2019-04-04T12:11:51.358Z,56.50
2019-04-04T12:14:21.894Z,55.70
2019-04-04T12:16:52.456Z,55.50
2019-04-04T12:19:21.366Z,55.20
2019-04-04T12:21:50.844Z,54.50
2019-04-04T12:24:19.470Z,54.30
2019-04-04T12:26:48.152Z,53.80
2019-04-04T12:29:17.092Z,53.70
2019-04-04T12:31:45.658Z,53.70
2019-04-04T12:34:15.253Z,53.90
2019-04-04T12:36:44.447Z,53.40
2019-04-04T12:39:15.293Z,53.10
2019-04-04T12:41:45.079Z,53.40
2019-04-04T12:44:14.288Z,53.00
2019-04-04T12:46:43.430Z,53.80
2019-04-04T12:49:13.983Z,54.00
2019-04-04T12:51:43.381Z,53.30
2019-04-04T12:54:12.640Z,52.70
2019-04-04T12:56:41.371Z,52.50
2019-04-04T12:59:10.101Z,52.90
2019-04-04T13:01:39.982Z,53.40
2019-04-04T13:04:08.113Z,53.40
2019-04-04T13:06:36.769Z,53.90
2019-04-04T13:09:06.566Z,53.60
2019-04-04T13:11:34.958Z,52.90
2019-04-04T13:14:03.127Z,52.30
2019-04-04T13:16:31.685Z,51.90
2019-04-04T13:18:59.848Z,51.20
2019-04-04T13:21:28.629Z,51.70
2019-04-04T13:23:57.058Z,52.20
2019-04-04T13:26:25.111Z,52.90
2019-04-04T13:28:53.278Z,53.10
2019-04-04T13:31:21.581Z,52.60
2019-04-04T13:33:50.213Z,52.40
2019-04-04T13:36:19.826Z,53.60
2019-04-04T13:38:47.974Z,54.40
2019-04-04T13:41:22.223Z,53.80
2019-04-04T13:43:51.447Z,53.40
2019-04-04T13:46:24.652Z,53.40
2019-04-04T13:48:53.389Z,54.40
2019-04-04T13:51:25.442Z,55.40
2019-04-04T13:53:54.016Z,54.80
2019-04-04T13:56:23.741Z,53.90
2019-04-04T13:58:53.183Z,54.40
2019-04-04T14:01:25.267Z,54.40
2019-04-04T14:03:53.551Z,54.60
2019-04-04T14:06:23.502Z,54.40
2019-04-04T14:08:52.880Z,54.30
2019-04-04T14:11:22.083Z,53.70
2019-04-04T14:13:51.532Z,54.30
2019-04-04T14:16:20.565Z,54.70
2019-04-04T14:18:48.895Z,55.20
2019-04-04T14:21:17.056Z,55.30
2019-04-04T14:23:45.584Z,55.40
2019-04-04T14:26:14.932Z,55.60
2019-04-04T14:28:43.543Z,56.60
2019-04-04T14:31:13.305Z,57.10
2019-04-04T14:33:43.259Z,56.60
2019-04-04T14:36:13.900Z,58.00
2019-04-04T14:38:43.585Z,57.50
2019-04-04T14:41:11.992Z,57.10
2019-04-04T14:43:40.486Z,56.80
2019-04-04T14:46:08.979Z,56.50
2019-04-04T14:48:42.232Z,57.00
2019-04-04T14:51:09.216Z,58.30
2019-04-04T14:53:38.498Z,59.00
2019-04-04T14:56:08.309Z,58.80
2019-04-04T14:58:37.396Z,58.60
2019-04-04T15:01:06.919Z,58.50
2019-04-04T15:03:36.015Z,58.50
2019-04-04T15:06:05.072Z,59.20
2019-04-04T15:08:34.075Z,59.90
2019-04-04T15:11:03.278Z,60.20
2019-04-04T15:13:32.997Z,60.10
2019-04-04T15:16:11.197Z,60.20
2019-04-04T15:18:39.455Z,60.10
2019-04-04T15:21:08.694Z,60.00
2019-04-04T15:23:36.828Z,59.90
2019-04-04T15:26:04.986Z,59.50
2019-04-04T15:28:33.555Z,59.70
2019-04-04T15:31:02.350Z,59.90
2019-04-04T15:33:30.946Z,59.80
2019-04-04T15:35:59.131Z,59.90
2019-04-04T15:38:27.614Z,61.20
2019-04-04T15:40:56.073Z,62.30
2019-04-04T15:43:25.907Z,62.40
2019-04-04T15:45:54.047Z,62.40
2019-04-04T15:48:22.714Z,62.40
2019-04-04T15:50:52.452Z,62.50
2019-04-04T15:53:21.586Z,62.40
2019-04-04T15:55:51.065Z,63.30
2019-04-04T15:58:21.717Z,64.50
2019-04-04T16:00:51.429Z,64.30
2019-04-04T16:03:20.714Z,64.20
2019-04-04T16:05:50.319Z,62.50
2019-04-04T16:08:20.649Z,63.80
2019-04-04T16:10:54.377Z,65.20
2019-04-04T16:13:27.608Z,64.60
2019-04-04T16:15:57.442Z,64.80
2019-04-04T16:18:27.203Z,65.30
2019-04-04T16:20:56.862Z,65.70
2019-04-04T16:23:27.598Z,65.30
2019-04-04T16:25:57.056Z,65.00
2019-04-04T16:28:26.707Z,65.00
2019-04-04T16:30:56.804Z,65.70
2019-04-04T16:33:29.591Z,65.70
2019-04-04T16:36:00.838Z,65.80
2019-04-04T16:38:30.642Z,65.90
2019-04-04T16:41:00.625Z,66.50
2019-04-04T16:43:30.185Z,67.30
2019-04-04T16:46:00.013Z,67.50
2019-04-04T16:48:29.772Z,68.10
2019-04-04T16:50:59.329Z,68.30
2019-04-04T16:53:30.059Z,68.30
2019-04-04T16:55:59.735Z,68.50
2019-04-04T16:58:29.492Z,68.70
2019-04-04T17:00:59.013Z,68.70
2019-04-04T17:03:28.187Z,68.30
2019-04-04T17:05:57.704Z,67.50
2019-04-04T17:08:27.179Z,68.10
2019-04-04T17:10:55.624Z,67.90
2019-04-04T17:13:25.281Z,67.40
2019-04-04T17:15:53.829Z,67.80
2019-04-04T17:18:22.094Z,68.60
2019-04-04T17:20:53.103Z,68.10
2019-04-04T17:23:22.061Z,68.70
2019-04-04T17:25:50.187Z,67.80
2019-04-04T17:28:18.777Z,67.80
2019-04-04T17:30:47.530Z,67.80
2019-04-04T17:33:16.042Z,67.80
2019-04-04T17:35:45.566Z,68.10
2019-04-04T17:38:13.997Z,68.80
2019-04-04T17:40:43.251Z,69.60
2019-04-04T17:43:12.804Z,69.30
2019-04-04T17:45:41.561Z,69.20
2019-04-04T17:48:11.802Z,69.50
2019-04-04T17:50:41.644Z,69.50
2019-04-04T17:53:12.220Z,71.10
2019-04-04T17:55:42.422Z,71.40
2019-04-04T17:58:12.840Z,71.10
2019-04-04T18:00:44.455Z,71.20
2019-04-04T18:03:13.575Z,70.80
2019-04-04T18:05:42.825Z,70.50
2019-04-04T18:08:12.259Z,70.80
2019-04-04T18:10:41.756Z,70.70
2019-04-04T18:13:10.996Z,70.40
2019-04-04T18:15:40.765Z,70.40
2019-04-04T18:18:10.125Z,70.30
2019-04-04T18:20:39.767Z,70.70
2019-04-04T18:23:09.870Z,71.30
2019-04-04T18:25:39.314Z,70.90
2019-04-04T18:28:08.789Z,70.30
2019-04-04T18:30:38.663Z,70.20
2019-04-04T18:33:08.625Z,69.70
2019-04-04T18:35:39.259Z,70.60
2019-04-04T18:38:09.106Z,70.40
2019-04-04T18:40:39.242Z,70.40
2019-04-04T18:43:08.925Z,70.10
2019-04-04T18:45:43.449Z,70.10
2019-04-04T18:48:10.162Z,68.90
2019-04-04T18:50:41.245Z,68.30
2019-04-04T18:53:11.805Z,69.00
2019-04-04T18:55:42.051Z,69.10
2019-04-04T18:58:11.782Z,69.60
2019-04-04T19:00:40.967Z,69.70
2019-04-04T19:03:11.623Z,70.10
2019-04-04T19:05:42.991Z,69.80
2019-04-04T19:08:12.200Z,69.90
2019-04-04T19:10:42.005Z,69.90
2019-04-04T19:13:11.561Z,69.30
2019-04-04T19:15:41.443Z,67.10
2019-04-04T19:18:11.245Z,68.20
2019-04-04T19:20:40.860Z,68.30
2019-04-04T19:23:10.324Z,69.20
2019-04-04T19:25:39.796Z,69.70
2019-04-04T19:28:09.824Z,68.90
2019-04-04T19:30:39.369Z,68.90
2019-04-04T19:33:09.269Z,69.90
2019-04-04T19:35:38.776Z,70.50
2019-04-04T19:38:08.188Z,70.90
2019-04-04T19:40:37.825Z,70.00
2019-04-04T19:43:17.454Z,69.50
2019-04-04T19:45:38.609Z,70.30
2019-04-04T19:48:08.228Z,69.20
2019-04-04T19:50:39.135Z,69.50
2019-04-04T19:53:08.727Z,70.00
2019-04-04T19:55:37.970Z,69.20
2019-04-04T19:58:08.420Z,69.30
2019-04-04T20:00:37.911Z,69.60
2019-04-04T20:03:07.694Z,69.00
2019-04-04T20:05:38.550Z,69.40
2019-04-04T20:08:08.235Z,70.00
2019-04-04T20:10:37.970Z,70.30
2019-04-04T20:13:07.769Z,70.40
2019-04-04T20:15:35.918Z,71.50
2019-04-04T20:18:04.422Z,71.40
2019-04-04T20:20:32.662Z,70.60
2019-04-04T20:23:04.302Z,71.00
2019-04-04T20:25:32.911Z,71.30
2019-04-04T20:28:01.617Z,71.30
2019-04-04T20:30:36.441Z,71.70
2019-04-04T20:33:04.912Z,71.30
2019-04-04T20:35:33.900Z,71.20
2019-04-04T20:38:05.310Z,70.40
2019-04-04T20:40:35.769Z,70.10
2019-04-04T20:43:06.080Z,71.00
2019-04-04T20:45:35.445Z,83.90
2019-04-04T20:48:06.414Z,73.10
2019-04-04T20:50:36.451Z,72.10
2019-04-04T20:53:05.861Z,72.90
2019-04-04T20:55:35.336Z,73.20
2019-04-04T20:58:04.519Z,71.80
2019-04-04T21:00:33.729Z,72.90
2019-04-04T21:03:03.067Z,73.00
2019-04-04T21:05:35.877Z,72.20
2019-04-04T21:08:05.051Z,73.30
2019-04-04T21:10:34.675Z,74.40
2019-04-04T21:13:04.088Z,73.30
2019-04-04T21:15:34.600Z,72.40
2019-04-04T21:18:04.334Z,72.10
2019-04-04T21:20:34.130Z,73.20
2019-04-04T21:23:03.917Z,72.70
2019-04-04T21:25:33.270Z,72.10
2019-04-04T21:28:03.976Z,72.60
2019-04-04T21:30:33.135Z,73.30
2019-04-04T21:33:02.414Z,73.20
2019-04-04T21:35:32.358Z,73.20
2019-04-04T21:38:01.743Z,72.90
2019-04-04T21:40:35.557Z,72.20
2019-04-04T21:43:05.129Z,72.20
2019-04-04T21:45:34.342Z,72.70
2019-04-04T21:48:04.115Z,73.50
2019-04-04T21:50:33.879Z,73.50
2019-04-04T21:53:03.584Z,72.60
2019-04-04T21:55:33.392Z,72.40
2019-04-04T21:58:02.766Z,73.40
2019-04-04T22:00:43.040Z,73.50
2019-04-04T22:03:12.454Z,73.50
2019-04-04T22:05:45.239Z,73.20
2019-04-04T22:08:17.153Z,72.90
2019-04-04T22:10:45.575Z,72.40
2019-04-04T22:13:14.372Z,72.40
2019-04-04T22:15:43.317Z,73.10
2019-04-04T22:18:11.977Z,73.20
2019-04-04T22:20:41.173Z,73.00
2019-04-04T22:23:12.289Z,72.90
2019-04-04T22:25:41.857Z,72.70
2019-04-04T22:28:11.465Z,72.50
2019-04-04T22:30:40.878Z,72.40
2019-04-04T22:33:10.907Z,73.00
2019-04-04T22:35:45.082Z,73.40
2019-04-04T22:38:14.646Z,73.80
2019-04-04T22:40:44.027Z,73.80
2019-04-04T22:43:13.474Z,73.90
2019-04-04T22:45:43.137Z,73.80
2019-04-04T22:48:12.736Z,73.30
2019-04-04T22:50:42.354Z,73.30
2019-04-04T22:53:11.430Z,72.60
2019-04-04T22:55:42.616Z,73.30
2019-04-04T22:58:11.686Z,73.60
2019-04-04T23:00:41.219Z,73.10
2019-04-04T23:03:10.779Z,73.50
2019-04-04T23:05:40.234Z,73.00
2019-04-04T23:08:10.093Z,73.00
2019-04-04T23:10:39.530Z,73.30
2019-04-04T23:13:11.456Z,73.40
2019-04-04T23:15:40.782Z,72.90
2019-04-04T23:18:10.319Z,73.20
2019-04-04T23:20:40.598Z,73.30
2019-04-04T23:23:10.093Z,73.60
2019-04-04T23:25:39.536Z,73.90
2019-04-04T23:28:09.407Z,73.70
2019-04-04T23:30:38.819Z,73.00
2019-04-04T23:33:07.891Z,72.90
2019-04-04T23:35:37.349Z,74.00
2019-04-04T23:38:06.769Z,73.00
2019-04-04T23:40:36.346Z,72.40
2019-04-04T23:43:05.569Z,73.00
2019-04-04T23:45:35.143Z,73.60
2019-04-04T23:48:04.805Z,75.00
2019-04-04T23:50:34.190Z,75.50
2019-04-04T23:53:03.336Z,74.80
2019-04-04T23:55:32.700Z,74.80
2019-04-04T23:58:01.988Z,74.50
